sensor_id;sensor_type;location;lat;lon;timestamp;temperature;humidity
12370;DHT22;6249;52.128;9.986;2023-05-28T00:05:09;12.00;99.90
12370;DHT22;6249;52.128;9.986;2023-05-28T00:15:09;11.80;99.90
12370;DHT22;6249;52.128;9.986;2023-05-28T00:25:11;11.60;99.90
12370;DHT22;6249;52.128;9.986;2023-05-28T00:35:11;11.60;99.90
12370;DHT22;6249;52.128;9.986;2023-05-28T00:45:14;11.40;99.90
12370;DHT22;6249;52.128;9.986;2023-05-28T00:55:15;11.30;99.90
12370;DHT22;6249;52.128;9.986;2023-05-28T01:05:21;11.10;99.90
12370;DHT22;6249;52.128;9.986;2023-05-28T01:15:22;11.20;99.90
12370;DHT22;6249;52.128;9.986;2023-05-28T01:25:24;10.70;99.90
12370;DHT22;6249;52.128;9.986;2023-05-28T01:35:25;11.60;99.90
12370;DHT22;6249;52.128;9.986;2023-05-28T01:45:26;10.40;99.90
12370;DHT22;6249;52.128;9.986;2023-05-28T01:55:30;10.30;99.90
12370;DHT22;6249;52.128;9.986;2023-05-28T02:05:33;10.30;99.90
12370;DHT22;6249;52.128;9.986;2023-05-28T02:15:33;10.20;99.90
12370;DHT22;6249;52.128;9.986;2023-05-28T02:25:34;9.90;99.90
12370;DHT22;6249;52.128;9.986;2023-05-28T02:35:37;9.90;99.90
12370;DHT22;6249;52.128;9.986;2023-05-28T02:45:42;9.60;99.90
12370;DHT22;6249;52.128;9.986;2023-05-28T02:55:43;9.50;99.90
12370;DHT22;6249;52.128;9.986;2023-05-28T03:05:46;9.50;99.90
12370;DHT22;6249;52.128;9.986;2023-05-28T03:15:49;9.80;99.90
12370;DHT22;6249;52.128;9.986;2023-05-28T03:25:52;9.40;99.90
12370;DHT22;6249;52.128;9.986;2023-05-28T03:35:55;9.30;99.90
12370;DHT22;6249;52.128;9.986;2023-05-28T03:45:55;9.30;99.90
12370;DHT22;6249;52.128;9.986;2023-05-28T03:55:56;9.80;99.90
12370;DHT22;6249;52.128;9.986;2023-05-28T04:05:56;9.40;99.90
12370;DHT22;6249;52.128;9.986;2023-05-28T04:15:57;9.50;99.90
12370;DHT22;6249;52.128;9.986;2023-05-28T04:25:58;9.50;99.90
12370;DHT22;6249;52.128;9.986;2023-05-28T04:36:00;9.60;99.90
12370;DHT22;6249;52.128;9.986;2023-05-28T04:46:01;9.70;99.90
12370;DHT22;6249;52.128;9.986;2023-05-28T04:56:06;9.80;99.90
12370;DHT22;6249;52.128;9.986;2023-05-28T05:06:10;10.00;99.90
12370;DHT22;6249;52.128;9.986;2023-05-28T05:16:13;10.40;99.90
12370;DHT22;6249;52.128;9.986;2023-05-28T05:26:14;10.70;99.90
12370;DHT22;6249;52.128;9.986;2023-05-28T05:36:17;11.00;99.90
12370;DHT22;6249;52.128;9.986;2023-05-28T05:46:19;11.20;99.90
12370;DHT22;6249;52.128;9.986;2023-05-28T05:56:20;11.60;99.90
12370;DHT22;6249;52.128;9.986;2023-05-28T06:06:20;11.90;99.90
12370;DHT22;6249;52.128;9.986;2023-05-28T06:16:21;12.30;99.90
12370;DHT22;6249;52.128;9.986;2023-05-28T06:26:22;12.70;99.90
12370;DHT22;6249;52.128;9.986;2023-05-28T06:36:23;13.20;99.90
12370;DHT22;6249;52.128;9.986;2023-05-28T06:46:26;13.30;99.90
12370;DHT22;6249;52.128;9.986;2023-05-28T06:56:28;13.80;99.90
12370;DHT22;6249;52.128;9.986;2023-05-28T07:06:29;14.10;99.90
12370;DHT22;6249;52.128;9.986;2023-05-28T07:16:29;14.50;99.90
12370;DHT22;6249;52.128;9.986;2023-05-28T07:26:31;14.90;99.90
12370;DHT22;6249;52.128;9.986;2023-05-28T07:36:32;15.60;99.90
12370;DHT22;6249;52.128;9.986;2023-05-28T07:46:36;16.10;99.90
12370;DHT22;6249;52.128;9.986;2023-05-28T07:56:36;16.70;99.90
12370;DHT22;6249;52.128;9.986;2023-05-28T08:06:38;17.10;99.90
12370;DHT22;6249;52.128;9.986;2023-05-28T08:16:39;17.60;99.90
12370;DHT22;6249;52.128;9.986;2023-05-28T08:26:39;18.40;99.30
12370;DHT22;6249;52.128;9.986;2023-05-28T08:36:40;19.10;99.90
12370;DHT22;6249;52.128;9.986;2023-05-28T08:46:43;19.60;98.90
12370;DHT22;6249;52.128;9.986;2023-05-28T08:56:44;20.00;94.70
12370;DHT22;6249;52.128;9.986;2023-05-28T09:06:44;20.60;93.90
12370;DHT22;6249;52.128;9.986;2023-05-28T09:16:45;21.60;92.60
12370;DHT22;6249;52.128;9.986;2023-05-28T09:26:52;22.50;91.70
12370;DHT22;6249;52.128;9.986;2023-05-28T09:36:59;23.30;88.00
12370;DHT22;6249;52.128;9.986;2023-05-28T09:47:00;24.20;72.90
12370;DHT22;6249;52.128;9.986;2023-05-28T09:57:04;25.00;69.00
12370;DHT22;6249;52.128;9.986;2023-05-28T10:07:09;25.50;73.80
12370;DHT22;6249;52.128;9.986;2023-05-28T10:17:12;25.90;72.00
12370;DHT22;6249;52.128;9.986;2023-05-28T10:27:14;26.60;66.00
12370;DHT22;6249;52.128;9.986;2023-05-28T10:37:23;27.90;60.70
12370;DHT22;6249;52.128;9.986;2023-05-28T10:47:37;28.90;58.70
12370;DHT22;6249;52.128;9.986;2023-05-28T10:57:46;29.20;54.10
12370;DHT22;6249;52.128;9.986;2023-05-28T11:07:47;30.10;54.50
12370;DHT22;6249;52.128;9.986;2023-05-28T11:17:48;31.10;51.10
12370;DHT22;6249;52.128;9.986;2023-05-28T11:27:50;32.80;46.10
12370;DHT22;6249;52.128;9.986;2023-05-28T11:37:50;33.40;44.20
12370;DHT22;6249;52.128;9.986;2023-05-28T11:47:53;33.40;43.90
12370;DHT22;6249;52.128;9.986;2023-05-28T11:57:55;34.90;40.40
12370;DHT22;6249;52.128;9.986;2023-05-28T12:07:59;32.70;41.40
12370;DHT22;6249;52.128;9.986;2023-05-28T12:18:02;32.80;42.70
12370;DHT22;6249;52.128;9.986;2023-05-28T12:28:06;35.40;39.40
12370;DHT22;6249;52.128;9.986;2023-05-28T12:38:08;34.60;38.50
12370;DHT22;6249;52.128;9.986;2023-05-28T12:48:09;35.90;36.90
12370;DHT22;6249;52.128;9.986;2023-05-28T12:58:10;37.00;34.70
12370;DHT22;6249;52.128;9.986;2023-05-28T13:08:10;37.10;34.50
12370;DHT22;6249;52.128;9.986;2023-05-28T13:18:11;37.50;33.70
12370;DHT22;6249;52.128;9.986;2023-05-28T13:28:14;37.70;33.70
12370;DHT22;6249;52.128;9.986;2023-05-28T13:38:15;38.60;30.80
12370;DHT22;6249;52.128;9.986;2023-05-28T13:48:18;39.70;30.70
12370;DHT22;6249;52.128;9.986;2023-05-28T13:58:18;39.30;32.10
12370;DHT22;6249;52.128;9.986;2023-05-28T14:08:21;39.40;29.60
12370;DHT22;6249;52.128;9.986;2023-05-28T14:18:25;39.60;30.80
12370;DHT22;6249;52.128;9.986;2023-05-28T14:28:26;40.90;29.80
12370;DHT22;6249;52.128;9.986;2023-05-28T14:38:27;41.20;28.70
12370;DHT22;6249;52.128;9.986;2023-05-28T14:48:27;40.90;29.30
12370;DHT22;6249;52.128;9.986;2023-05-28T14:58:30;41.20;29.10
12370;DHT22;6249;52.128;9.986;2023-05-28T15:08:34;40.00;28.60
12370;DHT22;6249;52.128;9.986;2023-05-28T15:18:34;40.50;28.10
12370;DHT22;6249;52.128;9.986;2023-05-28T15:28:35;39.80;28.90
12370;DHT22;6249;52.128;9.986;2023-05-28T15:38:36;38.80;29.50
12370;DHT22;6249;52.128;9.986;2023-05-28T15:48:37;37.10;32.10
12370;DHT22;6249;52.128;9.986;2023-05-28T15:58:38;35.80;31.50
12370;DHT22;6249;52.128;9.986;2023-05-28T16:08:40;34.10;33.40
12370;DHT22;6249;52.128;9.986;2023-05-28T16:18:43;32.40;36.30
12370;DHT22;6249;52.128;9.986;2023-05-28T16:28:43;31.00;37.40
12370;DHT22;6249;52.128;9.986;2023-05-28T16:38:44;30.00;36.50
12370;DHT22;6249;52.128;9.986;2023-05-28T16:48:49;29.60;38.10
12370;DHT22;6249;52.128;9.986;2023-05-28T16:58:55;28.60;38.60
12370;DHT22;6249;52.128;9.986;2023-05-28T17:08:56;28.20;40.50
12370;DHT22;6249;52.128;9.986;2023-05-28T17:18:59;27.80;41.70
12370;DHT22;6249;52.128;9.986;2023-05-28T17:29:00;27.70;41.90
12370;DHT22;6249;52.128;9.986;2023-05-28T17:39:01;27.50;43.10
12370;DHT22;6249;52.128;9.986;2023-05-28T17:49:02;27.30;46.50
12370;DHT22;6249;52.128;9.986;2023-05-28T17:59:03;27.00;46.50
12370;DHT22;6249;52.128;9.986;2023-05-28T18:09:04;26.50;47.50
12370;DHT22;6249;52.128;9.986;2023-05-28T18:19:10;26.00;49.40
12370;DHT22;6249;52.128;9.986;2023-05-28T18:29:10;25.40;52.00
12370;DHT22;6249;52.128;9.986;2023-05-28T18:39:11;25.00;55.60
12370;DHT22;6249;52.128;9.986;2023-05-28T18:49:17;24.40;58.90
12370;DHT22;6249;52.128;9.986;2023-05-28T18:59:18;23.90;61.20
12370;DHT22;6249;52.128;9.986;2023-05-28T19:09:21;23.20;66.20
12370;DHT22;6249;52.128;9.986;2023-05-28T19:19:24;22.90;68.20
12370;DHT22;6249;52.128;9.986;2023-05-28T19:29:25;22.30;72.70
12370;DHT22;6249;52.128;9.986;2023-05-28T19:39:26;21.70;77.70
12370;DHT22;6249;52.128;9.986;2023-05-28T19:49:26;21.10;82.00
12370;DHT22;6249;52.128;9.986;2023-05-28T19:59:28;20.60;86.70
12370;DHT22;6249;52.128;9.986;2023-05-28T20:09:29;20.40;87.30
12370;DHT22;6249;52.128;9.986;2023-05-28T20:19:32;20.30;91.00
12370;DHT22;6249;52.128;9.986;2023-05-28T20:29:36;20.20;93.00
12370;DHT22;6249;52.128;9.986;2023-05-28T20:39:38;20.00;93.70
12370;DHT22;6249;52.128;9.986;2023-05-28T20:49:40;19.80;94.90
12370;DHT22;6249;52.128;9.986;2023-05-28T20:59:41;19.70;95.60
12370;DHT22;6249;52.128;9.986;2023-05-28T21:09:42;19.40;94.50
12370;DHT22;6249;52.128;9.986;2023-05-28T21:19:42;19.20;94.90
12370;DHT22;6249;52.128;9.986;2023-05-28T21:29:43;19.00;95.70
12370;DHT22;6249;52.128;9.986;2023-05-28T21:39:43;18.60;96.40
12370;DHT22;6249;52.128;9.986;2023-05-28T21:49:44;18.40;97.50
12370;DHT22;6249;52.128;9.986;2023-05-28T21:59:46;18.10;98.50
12370;DHT22;6249;52.128;9.986;2023-05-28T22:09:47;17.80;99.60
12370;DHT22;6249;52.128;9.986;2023-05-28T22:19:48;17.50;99.90
12370;DHT22;6249;52.128;9.986;2023-05-28T22:29:48;17.30;99.90
12370;DHT22;6249;52.128;9.986;2023-05-28T22:39:51;17.00;99.90
12370;DHT22;6249;52.128;9.986;2023-05-28T22:49:52;16.70;99.90
12370;DHT22;6249;52.128;9.986;2023-05-28T22:59:56;16.50;99.90
12370;DHT22;6249;52.128;9.986;2023-05-28T23:09:56;16.30;99.90
12370;DHT22;6249;52.128;9.986;2023-05-28T23:19:59;16.30;99.90
12370;DHT22;6249;52.128;9.986;2023-05-28T23:30:00;16.10;99.90
12370;DHT22;6249;52.128;9.986;2023-05-28T23:40:06;15.80;99.90
12370;DHT22;6249;52.128;9.986;2023-05-28T23:50:07;15.70;99.90
